createdAt,value
2023-05-08T00:02:07.790Z,99753.40
2023-05-08T00:07:09.537Z,99758.78
2023-05-08T00:12:11.274Z,99761.14
2023-05-08T00:17:13.572Z,99759.33
2023-05-08T00:22:15.334Z,99761.87
2023-05-08T00:27:17.161Z,99760.14
2023-05-08T00:32:19.088Z,99755.80
2023-05-08T00:37:20.932Z,99756.14
2023-05-08T00:42:22.735Z,99753.76
2023-05-08T00:47:24.564Z,99749.48
2023-05-08T00:52:29.685Z,99750.11
2023-05-08T00:57:35.818Z,99749.64
2023-05-08T01:02:38.477Z,99755.66
2023-05-08T01:07:40.527Z,99756.55
2023-05-08T01:13:00.627Z,99763.01
2023-05-08T01:18:17.765Z,99760.47
2023-05-08T01:23:47.292Z,99755.73
2023-05-08T01:29:37.398Z,99762.09
2023-05-08T01:34:46.932Z,99763.54
2023-05-08T01:40:02.583Z,99764.88
2023-05-08T01:45:11.130Z,99770.41
2023-05-08T01:50:25.752Z,99771.21
2023-05-08T01:55:34.585Z,99771.98
2023-05-08T02:00:40.838Z,99766.53
2023-05-08T02:05:44.147Z,99761.68
2023-05-08T02:10:48.717Z,99763.40
2023-05-08T02:15:54.780Z,99765.22
2023-05-08T02:20:59.311Z,99768.14
2023-05-08T02:26:03.994Z,99771.00
2023-05-08T02:31:07.382Z,99774.60
2023-05-08T02:36:13.743Z,99773.20
2023-05-08T02:41:18.418Z,99775.59
2023-05-08T02:46:27.834Z,99780.84
2023-05-08T02:51:43.476Z,99782.38
2023-05-08T02:57:13.278Z,99782.84
2023-05-08T03:02:22.758Z,99779.88
2023-05-08T03:07:26.044Z,99783.94
2023-05-08T03:12:30.871Z,99779.44
2023-05-08T03:17:35.451Z,99779.14
2023-05-08T03:22:40.814Z,99786.52
2023-05-08T03:27:44.118Z,99787.15
2023-05-08T03:32:47.273Z,99792.14
2023-05-08T03:37:49.285Z,99800.80
2023-05-08T03:42:51.370Z,99799.10
2023-05-08T03:47:54.183Z,99795.98
2023-05-08T03:52:58.632Z,99801.09
2023-05-08T03:58:37.150Z,99804.58
2023-05-08T04:07:24.925Z,99812.90
2023-05-08T04:12:37.298Z,99819.62
2023-05-08T04:17:45.120Z,99825.33
2023-05-08T04:22:50.714Z,99824.13
2023-05-08T04:27:54.558Z,99832.42
2023-05-08T04:32:58.140Z,99836.83
2023-05-08T04:38:00.921Z,99839.78
2023-05-08T04:43:02.745Z,99844.77
2023-05-08T04:48:05.068Z,99845.09
2023-05-08T04:53:07.194Z,99842.77
2023-05-08T04:58:12.956Z,99844.79
2023-05-08T05:03:15.512Z,99851.95
2023-05-08T05:08:18.067Z,99852.52
2023-05-08T05:13:19.988Z,99862.67
2023-05-08T05:18:22.311Z,99863.78
2023-05-08T05:23:24.909Z,99868.71
2023-05-08T05:28:27.046Z,99876.98
2023-05-08T05:33:28.828Z,99876.55
2023-05-08T05:38:30.599Z,99878.96
2023-05-08T05:43:33.262Z,99884.06
2023-05-08T05:48:35.856Z,99890.09
2023-05-08T05:53:37.882Z,99900.45
2023-05-08T05:58:44.769Z,99910.90
2023-05-08T06:03:47.578Z,99915.20
2023-05-08T06:08:49.606Z,99917.44
2023-05-08T06:13:51.353Z,99921.32
2023-05-08T06:18:53.721Z,99928.85
2023-05-08T06:23:55.475Z,99933.27
2023-05-08T06:28:57.241Z,99936.52
2023-05-08T06:33:59.077Z,99939.41
2023-05-08T06:39:00.769Z,99944.22
2023-05-08T06:44:02.682Z,99946.40
2023-05-08T06:49:04.346Z,99947.80
2023-05-08T06:54:08.308Z,99953.69
2023-05-08T06:59:10.081Z,99954.84
2023-05-08T07:04:11.859Z,99955.11
2023-05-08T07:09:13.610Z,99963.91
2023-05-08T07:14:15.338Z,99972.58
2023-05-08T07:19:17.345Z,99971.96
2023-05-08T07:24:19.068Z,99976.52
2023-05-08T07:29:20.931Z,99978.40
2023-05-08T07:34:22.826Z,99980.77
2023-05-08T07:39:24.529Z,99983.92
2023-05-08T07:44:26.240Z,99983.23
2023-05-08T07:49:27.957Z,99977.89
2023-05-08T07:54:29.633Z,99981.28
2023-05-08T07:59:31.424Z,99982.30
2023-05-08T08:04:33.467Z,99978.77
2023-05-08T08:09:35.292Z,99980.06
2023-05-08T08:14:37.491Z,99979.96
2023-05-08T08:19:39.216Z,99978.95
2023-05-08T08:24:40.875Z,99977.60
2023-05-08T08:29:42.675Z,99980.34
2023-05-08T08:34:44.306Z,99975.46
2023-05-08T08:39:46.165Z,99971.08
2023-05-08T08:44:47.909Z,99975.33
2023-05-08T08:49:51.047Z,99979.41
2023-05-08T08:54:55.310Z,99981.67
2023-05-08T08:59:59.649Z,99988.59
2023-05-08T09:05:03.266Z,99994.68
2023-05-08T09:10:06.283Z,99996.08
2023-05-08T09:15:08.327Z,99998.22
2023-05-08T09:20:11.545Z,99998.79
2023-05-08T09:25:13.967Z,99993.30
2023-05-08T09:30:16.107Z,99999.40
2023-05-08T09:35:18.086Z,99996.98
2023-05-08T09:40:22.114Z,100000.73
2023-05-08T09:45:29.757Z,99994.86
2023-05-08T09:50:33.086Z,99991.10
2023-05-08T09:55:48.171Z,99981.16
2023-05-08T10:00:50.045Z,99985.50
2023-05-08T10:05:51.864Z,99981.21
2023-05-08T10:10:53.561Z,99979.06
2023-05-08T10:15:57.059Z,99972.90
2023-05-08T10:21:03.236Z,99967.80
2023-05-08T10:26:13.614Z,99965.02
2023-05-08T10:31:18.366Z,99956.05
2023-05-08T10:36:21.272Z,99947.10
2023-05-08T10:41:23.789Z,99938.52
2023-05-08T10:46:38.114Z,99935.36
2023-05-08T10:52:11.032Z,99925.23
2023-05-08T10:57:12.906Z,99925.58
2023-05-08T11:02:15.836Z,99928.94
2023-05-08T11:07:17.801Z,99932.46
2023-05-08T11:12:26.912Z,99925.88
2023-05-08T11:17:29.188Z,99923.60
2023-05-08T11:22:35.206Z,99917.42
2023-05-08T11:27:49.210Z,99918.66
2023-05-08T11:33:03.039Z,99919.04
2023-05-08T11:38:36.356Z,99916.64
2023-05-08T11:43:46.944Z,99912.59
2023-05-08T11:48:48.856Z,99904.64
2023-05-08T11:53:51.570Z,99903.56
2023-05-08T11:59:08.738Z,99896.33
2023-05-08T12:04:12.331Z,99892.30
2023-05-08T12:09:18.669Z,99898.17
2023-05-08T12:14:23.230Z,99904.58
2023-05-08T12:19:24.892Z,99895.90
2023-05-08T12:24:26.918Z,99902.55
2023-05-08T12:29:28.792Z,99909.27
2023-05-08T12:34:30.601Z,99911.41
2023-05-08T12:39:37.766Z,99901.50
2023-05-08T12:44:39.682Z,99898.67
2023-05-08T12:49:41.409Z,99900.02
2023-05-08T12:54:48.572Z,99898.32
2023-05-08T12:59:50.573Z,99892.23
2023-05-08T13:04:56.202Z,99889.66
2023-05-08T13:10:02.235Z,99894.08
2023-05-08T13:15:05.113Z,99892.79
2023-05-08T13:20:07.548Z,99893.09
2023-05-08T13:25:09.490Z,99891.90
2023-05-08T13:30:13.021Z,99897.94
2023-05-08T13:35:15.163Z,99895.20
2023-05-08T13:40:18.207Z,99885.46
2023-05-08T13:45:20.049Z,99879.41
2023-05-08T13:50:22.309Z,99876.98
2023-05-08T13:55:24.272Z,99878.67
2023-05-08T14:00:27.942Z,99880.45
2023-05-08T14:05:30.031Z,99872.63
2023-05-08T14:10:31.757Z,99878.23
2023-05-08T14:15:37.299Z,99872.73
2023-05-08T14:20:39.580Z,99872.95
2023-05-08T14:25:41.338Z,99873.48
2023-05-08T14:30:43.052Z,99860.83
2023-05-08T14:35:45.905Z,99860.84
2023-05-08T14:40:50.780Z,99858.33
2023-05-08T14:45:52.518Z,99861.33
2023-05-08T14:50:54.235Z,99870.58
2023-05-08T14:55:56.496Z,99877.03
2023-05-08T15:00:58.268Z,99886.11
2023-05-08T15:06:10.235Z,99891.90
2023-05-08T15:11:11.924Z,99887.33
2023-05-08T15:16:13.758Z,99882.80
2023-05-08T15:21:15.579Z,99884.78
2023-05-08T15:26:17.356Z,99891.11
2023-05-08T15:31:19.037Z,99881.23
2023-05-08T15:36:20.816Z,99874.59
2023-05-08T15:41:22.500Z,99876.11
2023-05-08T15:46:24.366Z,99875.73
2023-05-08T15:51:26.507Z,99878.99
2023-05-08T15:56:28.348Z,99882.27
2023-05-08T16:01:30.156Z,99879.20
2023-05-08T16:06:32.639Z,99880.27
2023-05-08T16:11:34.353Z,99870.52
2023-05-08T16:16:38.295Z,99870.47
2023-05-08T16:21:39.988Z,99865.80
2023-05-08T16:26:41.684Z,99861.94
2023-05-08T16:31:43.436Z,99860.63
2023-05-08T16:36:45.883Z,99866.32
2023-05-08T16:41:47.725Z,99866.48
2023-05-08T16:46:49.652Z,99874.37
2023-05-08T16:51:51.436Z,99877.80
2023-05-08T16:56:53.220Z,99882.23
2023-05-08T17:01:55.433Z,99882.67
2023-05-08T17:06:58.628Z,99885.88
2023-05-08T17:12:01.835Z,99893.01
2023-05-08T17:17:03.659Z,99884.86
2023-05-08T17:22:05.353Z,99883.61
2023-05-08T17:27:08.033Z,99882.32
2023-05-08T17:32:09.829Z,99874.67
2023-05-08T17:37:11.881Z,99866.23
2023-05-08T17:42:13.597Z,99865.73
2023-05-08T17:47:15.307Z,99862.73
2023-05-08T17:52:16.984Z,99866.44
2023-05-08T17:57:18.817Z,99865.98
2023-05-08T18:02:20.513Z,99873.54
2023-05-08T18:07:22.426Z,99883.02
2023-05-08T18:12:24.190Z,99884.17
2023-05-08T18:17:29.324Z,99883.91
2023-05-08T18:22:31.175Z,99886.46
2023-05-08T18:27:34.506Z,99890.80
2023-05-08T18:32:36.781Z,99898.21
2023-05-08T18:37:38.557Z,99901.62
2023-05-08T18:42:40.246Z,99900.79
2023-05-08T18:47:42.094Z,99905.08
2023-05-08T18:52:43.934Z,99904.71
2023-05-08T18:57:45.606Z,99910.74
2023-05-08T19:02:47.399Z,99917.43
2023-05-08T19:07:49.272Z,99921.79
2023-05-08T19:12:51.081Z,99922.54
2023-05-08T19:17:53.019Z,99919.34
2023-05-08T19:22:55.054Z,99913.17
2023-05-08T19:27:58.689Z,99913.84
2023-05-08T19:33:00.398Z,99913.04
2023-05-08T19:38:02.153Z,99914.08
2023-05-08T19:43:04.033Z,99914.23
2023-05-08T19:48:10.588Z,99911.28
2023-05-08T19:53:17.856Z,99903.93
2023-05-08T19:58:19.616Z,99897.18
2023-05-08T20:03:21.475Z,99896.63
2023-05-08T20:08:23.373Z,99904.23
2023-05-08T20:13:25.417Z,99901.11
2023-05-08T20:18:27.197Z,99894.83
2023-05-08T20:23:28.914Z,99887.08
2023-05-08T20:28:30.899Z,99887.98
2023-05-08T20:33:32.631Z,99895.18
2023-05-08T20:38:36.545Z,99891.37
2023-05-08T20:43:38.591Z,99892.98
2023-05-08T20:48:40.323Z,99889.41
2023-05-08T20:53:42.104Z,99888.24
2023-05-08T20:58:43.852Z,99890.81
2023-05-08T21:03:45.547Z,99891.65
2023-05-08T21:08:48.575Z,99886.65
2023-05-08T21:13:55.492Z,99881.58
2023-05-08T21:18:58.424Z,99878.77
2023-05-08T21:24:00.402Z,99883.83
2023-05-08T21:29:04.359Z,99884.06
2023-05-08T21:34:07.229Z,99877.98
2023-05-08T21:39:10.845Z,99876.70
2023-05-08T21:44:15.503Z,99878.73
2023-05-08T21:49:18.425Z,99871.59
2023-05-08T21:54:23.246Z,99873.86
2023-05-08T21:59:24.939Z,99870.10
2023-05-08T22:04:26.605Z,99870.10
2023-05-08T22:09:28.215Z,99864.44
2023-05-08T22:14:30.227Z,99860.34
2023-05-08T22:19:31.951Z,99859.05
2023-05-08T22:24:33.766Z,99856.70
2023-05-08T22:29:35.479Z,99855.42
2023-05-08T22:34:37.196Z,99851.10
2023-05-08T22:39:38.843Z,99851.76
2023-05-08T22:44:40.538Z,99841.88
2023-05-08T22:49:42.497Z,99837.42
2023-05-08T22:54:44.263Z,99837.55
2023-05-08T22:59:45.924Z,99834.80
2023-05-08T23:04:47.668Z,99836.54
2023-05-08T23:09:49.944Z,99837.77
2023-05-08T23:14:55.769Z,99838.08
2023-05-08T23:19:57.476Z,99838.90
2023-05-08T23:24:59.313Z,99832.87
2023-05-08T23:30:01.106Z,99828.12
2023-05-08T23:35:10.730Z,99826.04
2023-05-08T23:40:13.570Z,99823.09
2023-05-08T23:45:15.601Z,99821.69
2023-05-08T23:50:19.004Z,99816.85
2023-05-08T23:55:20.867Z,99812.88
